Time;durP1;ratioP1;P1;durP2;ratioP2;P2;SDS_P1;SDS_P2;PMS_P1;PMS_P2;Temp;Humidity;BMP_temperature;BMP_pressure;BME280_temperature;BME280_humidity;BME280_pressure;Samples;Min_cycle;Max_cycle;Signal;HPM_P1;HPM_P2
2024/03/17 00:02:04;;;;;;;5.57;2.77;;;;;;;2.81;100.00;101598.13;5063147;28;20202;-71
2024/03/17 00:04:32;;;;;;;8.20;2.73;;;;;;;2.79;100.00;101597.56;5071245;28;20189;-71
2024/03/17 00:06:58;;;;;;;10.03;3.10;;;;;;;2.74;100.00;101600.13;5067627;28;20288;-71
2024/03/17 00:09:25;;;;;;;8.40;3.07;;;;;;;2.70;100.00;101599.06;5069589;28;20744;-71
2024/03/17 00:11:53;;;;;;;5.27;3.23;;;;;;;2.65;100.00;101605.00;5071164;28;20206;-71
2024/03/17 00:14:20;;;;;;;10.33;3.03;;;;;;;2.62;100.00;101600.31;5071182;28;20711;-71
2024/03/17 00:16:47;;;;;;;8.27;3.03;;;;;;;2.57;100.00;101597.66;5070846;28;20206;-72
2024/03/17 00:19:14;;;;;;;5.73;2.70;;;;;;;2.54;100.00;101592.16;5071158;28;20240;-72
2024/03/17 00:21:41;;;;;;;5.77;3.13;;;;;;;2.49;100.00;101597.31;5057253;28;20210;-72
2024/03/17 00:24:08;;;;;;;6.63;2.83;;;;;;;2.45;100.00;101604.06;5053338;28;20558;-72
2024/03/17 00:26:34;;;;;;;7.93;2.70;;;;;;;2.43;100.00;101604.28;5071046;28;20242;-72
2024/03/17 00:29:00;;;;;;;6.50;2.90;;;;;;;2.41;100.00;101605.56;5048195;28;20234;-72
2024/03/17 00:31:26;;;;;;;6.13;3.03;;;;;;;2.37;100.00;101610.50;5049876;28;20207;-72
2024/03/17 00:33:52;;;;;;;7.93;3.03;;;;;;;2.35;100.00;101609.97;5065423;28;20195;-72
2024/03/17 00:36:18;;;;;;;7.60;2.40;;;;;;;2.33;100.00;101604.19;5069354;28;20240;-72
2024/03/17 00:38:45;;;;;;;10.60;2.87;;;;;;;2.32;100.00;101602.63;5071167;28;20201;-72
2024/03/17 00:41:12;;;;;;;8.07;2.90;;;;;;;2.30;100.00;101609.91;5040387;28;20234;-72
2024/03/17 00:43:37;;;;;;;6.40;2.87;;;;;;;2.34;100.00;101610.97;5058777;28;20213;-71
2024/03/17 00:46:04;;;;;;;9.40;2.83;;;;;;;2.36;100.00;101611.53;5061305;28;20226;-71
2024/03/17 00:48:30;;;;;;;5.10;2.80;;;;;;;2.39;100.00;101600.59;5048292;28;20207;-72
2024/03/17 00:50:57;;;;;;;7.83;3.03;;;;;;;2.44;100.00;101608.47;5057808;28;20198;-72
2024/03/17 00:53:22;;;;;;;9.20;3.27;;;;;;;2.48;100.00;101604.34;5050705;28;20201;-72
2024/03/17 00:55:53;;;;;;;7.70;2.87;;;;;;;2.53;100.00;101608.81;5070895;28;20223;-71
2024/03/17 00:58:20;;;;;;;6.60;2.97;;;;;;;2.54;100.00;101605.97;5069968;28;20480;-71
2024/03/17 01:00:47;;;;;;;7.43;2.67;;;;;;;2.56;100.00;101606.53;5061646;28;20219;-71
2024/03/17 01:03:13;;;;;;;10.00;2.90;;;;;;;2.56;100.00;101606.53;5064953;28;20222;-71
2024/03/17 01:05:42;;;;;;;8.33;2.63;;;;;;;2.58;100.00;101612.25;5067774;28;20249;-71
2024/03/17 01:08:07;;;;;;;11.43;3.30;;;;;;;2.62;100.00;101613.34;5071063;28;20212;-71
2024/03/17 01:10:34;;;;;;;8.97;2.83;;;;;;;2.67;100.00;101616.00;5074377;28;20195;-71
2024/03/17 01:13:00;;;;;;;6.93;2.70;;;;;;;2.65;100.00;101609.47;5074096;28;20206;-71
2024/03/17 01:15:27;;;;;;;9.30;3.13;;;;;;;2.70;100.00;101602.44;5069051;28;20227;-72
2024/03/17 01:17:52;;;;;;;9.47;3.20;;;;;;;2.69;100.00;101611.31;5072535;28;20209;-72
2024/03/17 01:20:18;;;;;;;10.27;3.70;;;;;;;2.71;100.00;101604.00;5062429;28;20279;-71
2024/03/17 01:22:44;;;;;;;6.00;2.53;;;;;;;2.72;100.00;101603.00;5060931;28;20205;-71
2024/03/17 01:25:11;;;;;;;8.57;2.77;;;;;;;2.75;100.00;101612.16;5069840;28;20879;-71
2024/03/17 01:27:36;;;;;;;6.97;2.83;;;;;;;2.75;100.00;101607.72;5063278;28;20734;-71
2024/03/17 01:30:05;;;;;;;9.93;3.33;;;;;;;2.74;100.00;101613.97;5070597;28;20289;-71
2024/03/17 01:32:33;;;;;;;9.80;2.87;;;;;;;2.75;100.00;101604.31;5074177;28;20203;-71
2024/03/17 01:35:01;;;;;;;11.23;2.97;;;;;;;2.74;100.00;101610.56;5073303;28;20229;-71
2024/03/17 01:37:26;;;;;;;12.63;3.00;;;;;;;2.73;100.00;101603.78;5058979;28;20265;-71
2024/03/17 01:39:53;;;;;;;8.57;2.57;;;;;;;2.71;100.00;101600.63;5067854;28;20710;-71
2024/03/17 01:42:18;;;;;;;10.90;2.73;;;;;;;2.68;100.00;101609.75;5073904;28;20203;-71
2024/03/17 01:44:44;;;;;;;12.03;2.60;;;;;;;2.66;100.00;101611.81;5070832;28;20227;-71
2024/03/17 01:47:11;;;;;;;9.77;2.53;;;;;;;2.64;100.00;101608.66;5054761;28;20195;-71
2024/03/17 01:49:38;;;;;;;6.97;2.50;;;;;;;2.61;100.00;101611.78;5061864;28;20213;-71
2024/03/17 01:52:05;;;;;;;4.90;2.50;;;;;;;2.57;100.00;101615.91;5071368;28;20199;-72
2024/03/17 01:54:31;;;;;;;7.77;2.70;;;;;;;2.55;100.00;101619.78;5061536;28;20277;-72
2024/03/17 01:56:57;;;;;;;6.63;2.47;;;;;;;2.52;100.00;101621.06;5073556;28;20222;-72
2024/03/17 01:59:24;;;;;;;5.60;1.97;;;;;;;2.48;100.00;101621.78;5073259;28;20570;-72
2024/03/17 02:01:50;;;;;;;7.90;2.40;;;;;;;2.44;100.00;101624.13;5065678;28;20565;-72
2024/03/17 02:04:17;;;;;;;9.37;2.30;;;;;;;2.39;100.00;101624.06;5068669;28;20226;-72
2024/03/17 02:06:44;;;;;;;8.83;2.00;;;;;;;2.34;100.00;101629.22;5069260;28;20191;-71
2024/03/17 02:09:10;;;;;;;6.43;2.23;;;;;;;2.28;100.00;101626.81;5058561;28;20223;-71
2024/03/17 02:11:36;;;;;;;5.73;2.60;;;;;;;2.23;100.00;101624.16;5053977;28;20273;-71
2024/03/17 02:14:02;;;;;;;10.27;2.80;;;;;;;2.16;100.00;101628.75;5073521;28;20589;-72
2024/03/17 02:16:29;;;;;;;6.30;2.27;;;;;;;2.11;100.00;101626.09;5073233;28;20301;-72
2024/03/17 02:22:44;;;;;;;6.57;1.93;;;;;;;1.95;100.00;101626.97;5068360;28;20201;-72
2024/03/17 02:25:10;;;;;;;6.03;2.10;;;;;;;1.91;100.00;101625.88;5071604;28;20247;-72
2024/03/17 02:27:36;;;;;;;8.87;2.53;;;;;;;1.87;100.00;101624.81;5070479;28;20693;-72
2024/03/17 02:30:03;;;;;;;8.00;2.30;;;;;;;1.83;100.00;101629.69;5065232;28;20283;-72
2024/03/17 02:32:29;;;;;;;6.00;2.40;;;;;;;1.80;100.00;101630.19;5072085;28;20190;-72
2024/03/17 02:34:54;;;;;;;8.07;2.73;;;;;;;1.75;100.00;101632.72;5065862;28;20226;-72
2024/03/17 02:37:21;;;;;;;9.60;2.30;;;;;;;1.70;100.00;101630.06;5063495;28;20700;-72
2024/03/17 02:39:48;;;;;;;4.57;1.93;;;;;;;1.67;100.00;101633.13;5073269;28;20305;-72
2024/03/17 02:42:14;;;;;;;4.83;2.30;;;;;;;1.64;100.00;101633.63;5065943;28;20203;-72
2024/03/17 02:44:41;;;;;;;7.03;2.43;;;;;;;1.60;100.00;101623.91;5067427;28;20217;-72
2024/03/17 02:47:14;;;;;;;10.63;2.70;;;;;;;1.59;100.00;101619.75;5072572;28;20252;-72
2024/03/17 02:49:43;;;;;;;5.37;2.43;;;;;;;1.55;100.00;101629.06;5064450;28;20279;-72
2024/03/17 02:52:11;;;;;;;6.17;2.20;;;;;;;1.54;100.00;101627.47;5064144;28;20543;-72
2024/03/17 02:54:38;;;;;;;6.53;2.20;;;;;;;1.50;100.00;101626.41;5063943;28;20352;-72
2024/03/17 02:57:07;;;;;;;6.77;2.33;;;;;;;1.47;100.00;101624.28;5063461;28;20199;-71
2024/03/17 02:59:33;;;;;;;12.60;2.50;;;;;;;1.42;100.00;101625.00;5068015;28;20248;-71
2024/03/17 03:02:01;;;;;;;8.73;2.27;;;;;;;1.43;100.00;101617.97;5069613;28;20277;-71
2024/03/17 03:04:30;;;;;;;2.93;1.90;;;;;;;1.40;100.00;101626.28;5072877;28;20688;-72
2024/03/17 03:06:56;;;;;;;6.87;2.00;;;;;;;1.38;100.00;101623.09;5043348;28;20192;-72
2024/03/17 03:09:30;;;;;;;7.90;2.17;;;;;;;1.34;100.00;101619.41;5057833;28;20190;-72
2024/03/17 03:11:56;;;;;;;8.00;2.47;;;;;;;1.32;100.00;101621.47;5065799;28;20207;-72
2024/03/17 03:14:27;;;;;;;4.17;1.93;;;;;;;1.30;100.00;101628.72;5065640;28;20252;-71
2024/03/17 03:16:53;;;;;;;7.17;2.50;;;;;;;1.29;100.00;101637.53;5066604;28;20652;-72
2024/03/17 03:19:23;;;;;;;8.80;2.40;;;;;;;1.29;100.00;101627.94;5071124;28;20660;-71
2024/03/17 03:21:49;;;;;;;8.97;2.20;;;;;;;1.21;100.00;101628.31;5074183;28;20199;-71
2024/03/17 03:24:15;;;;;;;5.90;2.23;;;;;;;1.18;100.00;101630.59;5072972;28;20209;-72
2024/03/17 03:26:42;;;;;;;5.10;1.77;;;;;;;1.15;100.00;101628.50;5071987;28;20198;-71
2024/03/17 03:29:10;;;;;;;6.13;1.93;;;;;;;1.14;100.00;101634.72;5067697;28;20219;-71
2024/03/17 03:31:41;;;;;;;5.63;1.73;;;;;;;1.08;100.00;101633.84;5052496;28;20195;-72
2024/03/17 03:34:08;;;;;;;4.80;1.90;;;;;;;1.05;100.00;101633.53;5050842;28;20195;-71
2024/03/17 03:36:35;;;;;;;7.10;2.03;;;;;;;1.03;100.00;101619.97;5065667;28;20690;-71
2024/03/17 03:39:04;;;;;;;8.70;2.30;;;;;;;0.98;100.00;101625.09;5061278;28;20225;-71
2024/03/17 03:41:30;;;;;;;9.83;1.93;;;;;;;0.95;100.00;101628.97;5053286;28;20207;-72
2024/03/17 03:43:57;;;;;;;9.17;2.17;;;;;;;0.94;100.00;101632.59;5054215;28;20688;-71
2024/03/17 03:46:23;;;;;;;9.87;2.37;;;;;;;0.90;100.00;101626.28;5069744;28;20764;-71
2024/03/17 03:48:51;;;;;;;10.07;2.60;;;;;;;0.90;100.00;101622.91;5062355;28;20223;-71
2024/03/17 03:51:17;;;;;;;3.27;1.90;;;;;;;0.88;100.00;101622.38;5052157;28;20558;-71
2024/03/17 03:53:44;;;;;;;8.97;2.10;;;;;;;0.87;100.00;101621.56;5053020;28;20557;-71
2024/03/17 03:56:15;;;;;;;10.87;1.80;;;;;;;0.88;100.00;101632.75;5062034;28;20293;-72
2024/03/17 03:58:42;;;;;;;11.97;2.47;;;;;;;0.86;100.00;101632.19;5071132;28;20222;-71
2024/03/17 04:01:15;;;;;;;8.70;1.83;;;;;;;0.81;100.00;101639.91;5075009;28;20204;-71
2024/03/17 04:03:42;;;;;;;8.30;1.83;;;;;;;0.80;100.00;101639.13;5062914;28;20657;-71
2024/03/17 04:06:11;;;;;;;9.97;2.40;;;;;;;0.79;100.00;101634.94;5060828;28;20343;-72
2024/03/17 04:08:39;;;;;;;10.00;2.03;;;;;;;0.76;100.00;101638.03;5065606;28;20548;-72
2024/03/17 04:11:07;;;;;;;7.03;2.63;;;;;;;0.71;100.00;101643.13;5071485;28;20612;-71
2024/03/17 04:13:33;;;;;;;10.37;1.97;;;;;;;0.72;100.00;101642.09;5044312;28;20203;-71
2024/03/17 04:16:01;;;;;;;9.47;2.20;;;;;;;0.71;100.00;101643.13;5070712;28;20628;-72
2024/03/17 04:18:30;;;;;;;6.73;1.90;;;;;;;0.70;100.00;101636.38;5071180;28;20214;-72
2024/03/17 04:20:57;;;;;;;9.87;2.30;;;;;;;0.67;100.00;101641.22;5071538;28;20209;-72
2024/03/17 04:23:25;;;;;;;9.30;2.00;;;;;;;0.68;100.00;101637.63;5070739;28;20289;-72
2024/03/17 04:25:52;;;;;;;11.40;2.80;;;;;;;0.64;100.00;101641.72;5069580;28;20719;-72
2024/03/17 04:28:18;;;;;;;7.37;1.93;;;;;;;0.66;100.00;101639.66;5071195;28;20198;-72
2024/03/17 04:30:44;;;;;;;7.53;1.93;;;;;;;0.64;100.00;101639.88;5073177;28;20203;-71
2024/03/17 04:33:11;;;;;;;10.37;2.50;;;;;;;0.64;100.00;101645.06;5072156;28;20209;-71
2024/03/17 04:35:38;;;;;;;10.63;2.60;;;;;;;0.62;100.00;101652.34;5075154;28;20218;-71
2024/03/17 04:38:05;;;;;;;11.47;2.40;;;;;;;0.62;100.00;101643.72;5075360;28;20673;-71
2024/03/17 04:40:33;;;;;;;5.93;2.20;;;;;;;0.61;100.00;101644.75;5056463;28;20256;-71
2024/03/17 04:42:59;;;;;;;7.03;1.87;;;;;;;0.59;100.00;101644.22;5059457;28;20195;-71
2024/03/17 04:45:26;;;;;;;10.00;2.10;;;;;;;0.56;100.00;101652.47;5074837;28;20234;-71
2024/03/17 04:47:52;;;;;;;7.77;2.23;;;;;;;0.51;100.00;101653.19;5074946;28;20187;-71
2024/03/17 04:50:19;;;;;;;10.43;2.57;;;;;;;0.51;100.00;101652.38;5057432;28;20205;-71
2024/03/17 04:52:45;;;;;;;9.73;2.30;;;;;;;0.52;100.00;101664.38;5074443;28;20244;-71
2024/03/17 04:55:11;;;;;;;6.03;2.47;;;;;;;0.50;100.00;101661.19;5067051;28;20227;-71
2024/03/17 04:57:39;;;;;;;9.70;2.37;;;;;;;0.49;100.00;101664.81;5072074;28;20206;-71
2024/03/17 05:00:07;;;;;;;10.70;2.00;;;;;;;0.47;100.00;101674.66;5074712;28;20198;-71
2024/03/17 05:02:33;;;;;;;11.20;2.57;;;;;;;0.46;100.00;101665.28;5071941;28;20186;-71
2024/03/17 05:04:59;;;;;;;7.60;2.73;;;;;;;0.45;100.00;101674.09;5064701;28;20681;-72
2024/03/17 05:07:26;;;;;;;13.97;2.77;;;;;;;0.45;100.00;101676.69;5074809;28;20190;-71
2024/03/17 05:09:52;;;;;;;8.47;2.13;;;;;;;0.47;100.00;101669.47;5061414;28;20198;-71
2024/03/17 05:12:19;;;;;;;8.47;2.27;;;;;;;0.45;100.00;101671.50;5062620;28;20209;-71
2024/03/17 05:14:47;;;;;;;5.67;2.13;;;;;;;0.49;100.00;101670.03;5073073;28;20228;-72
2024/03/17 05:17:13;;;;;;;8.43;2.00;;;;;;;0.49;100.00;101675.22;5074621;28;20195;-71
2024/03/17 05:19:39;;;;;;;8.53;2.50;;;;;;;0.50;100.00;101675.00;5074188;28;20214;-71
2024/03/17 05:22:05;;;;;;;11.23;2.50;;;;;;;0.52;100.00;101677.38;5074256;28;20209;-71
2024/03/17 05:24:31;;;;;;;7.20;2.17;;;;;;;0.53;100.00;101677.09;5065911;28;20655;-71
2024/03/17 05:26:57;;;;;;;14.43;2.60;;;;;;;0.57;100.00;101677.47;5074288;28;20199;-71
2024/03/17 05:29:24;;;;;;;8.77;3.43;;;;;;;0.57;100.00;101688.63;5074166;28;20190;-71
2024/03/17 05:31:52;;;;;;;9.23;2.03;;;;;;;0.57;100.00;101691.22;5074097;28;20661;-71
2024/03/17 05:34:18;;;;;;;11.57;2.73;;;;;;;0.58;100.00;101690.19;5062387;28;20222;-71
2024/03/17 05:36:46;;;;;;;11.43;2.50;;;;;;;0.61;100.00;101694.94;5069795;28;20202;-71
2024/03/17 05:39:13;;;;;;;7.53;2.80;;;;;;;0.62;100.00;101691.31;5073801;28;20234;-71
2024/03/17 05:41:39;;;;;;;10.77;2.73;;;;;;;0.64;100.00;101693.69;5068875;28;20199;-71
2024/03/17 05:44:05;;;;;;;12.00;2.90;;;;;;;0.66;100.00;101692.44;5073923;28;20202;-71
2024/03/17 05:46:32;;;;;;;12.37;2.27;;;;;;;0.69;100.00;101686.75;5073838;28;20218;-72
2024/03/17 05:48:59;;;;;;;13.47;2.83;;;;;;;0.71;100.00;101694.31;5067399;28;20266;-72
2024/03/17 05:51:27;;;;;;;9.67;2.70;;;;;;;0.73;100.00;101694.91;5065460;28;20194;-72
2024/03/17 05:53:55;;;;;;;18.83;3.33;;;;;;;0.77;100.00;101693.38;5073504;28;20202;-71
2024/03/17 05:56:22;;;;;;;9.90;2.60;;;;;;;0.82;100.00;101694.28;5070100;28;20215;-71
2024/03/17 05:58:49;;;;;;;15.53;2.57;;;;;;;0.84;100.00;101696.66;5073628;28;20210;-71
2024/03/17 06:01:15;;;;;;;13.77;2.97;;;;;;;0.87;100.00;101699.56;5073447;28;20691;-71
2024/03/17 06:03:42;;;;;;;14.97;2.60;;;;;;;0.93;100.00;101697.81;5073643;28;20204;-71
2024/03/17 06:06:11;;;;;;;16.13;3.37;;;;;;;0.96;100.00;101705.97;5073178;28;20276;-71
2024/03/17 06:08:37;;;;;;;13.80;2.90;;;;;;;0.99;100.00;101707.31;5073173;28;20284;-71
2024/03/17 06:11:04;;;;;;;21.43;3.03;;;;;;;1.02;100.00;101710.22;5073052;28;20228;-72
2024/03/17 06:13:30;;;;;;;15.23;3.27;;;;;;;1.08;100.00;101716.28;5060700;28;20209;-72
2024/03/17 06:16:00;;;;;;;10.20;2.70;;;;;;;1.13;100.00;101716.38;5072926;28;20578;-72
2024/03/17 06:18:27;;;;;;;12.87;3.20;;;;;;;1.18;100.00;101714.66;5055020;28;20229;-72
2024/03/17 06:20:57;;;;;;;16.53;2.87;;;;;;;1.24;100.00;101718.09;5070095;28;20553;-72
2024/03/17 06:23:26;;;;;;;8.73;2.57;;;;;;;1.28;100.00;101729.63;5048541;28;20345;-71
2024/03/17 06:25:54;;;;;;;23.43;3.10;;;;;;;1.35;100.00;101723.25;5057179;28;20256;-71
2024/03/17 06:28:23;;;;;;;10.30;3.20;;;;;;;1.41;100.00;101718.91;5073177;28;20205;-71
2024/03/17 06:30:57;;;;;;;23.43;3.80;;;;;;;1.46;100.00;101716.38;5068886;28;20222;-71
2024/03/17 06:33:23;;;;;;;9.77;2.57;;;;;;;1.57;100.00;101731.91;5061099;28;20202;-71
2024/03/17 06:35:49;;;;;;;12.30;2.80;;;;;;;1.61;100.00;101727.81;5072609;28;20211;-72
2024/03/17 06:38:16;;;;;;;18.67;3.50;;;;;;;1.68;100.00;101731.03;5064808;28;20215;-72
2024/03/17 06:40:49;;;;;;;11.67;3.47;;;;;;;1.79;100.00;101740.56;5071801;28;20202;-72
2024/03/17 06:43:15;;;;;;;19.97;3.70;;;;;;;1.88;100.00;101746.16;5039093;28;20818;-72
2024/03/17 06:45:42;;;;;;;19.57;4.07;;;;;;;1.97;100.00;101749.94;5067496;28;20219;-72
2024/03/17 06:48:08;;;;;;;18.83;4.10;;;;;;;2.04;100.00;101750.53;5069803;28;20245;-71
2024/03/17 06:50:35;;;;;;;11.83;3.37;;;;;;;2.11;100.00;101749.34;5069140;28;20202;-72
2024/03/17 06:53:01;;;;;;;19.90;7.50;;;;;;;2.22;100.00;101763.28;5058902;28;20285;-72
2024/03/17 06:55:28;;;;;;;17.10;3.73;;;;;;;2.28;100.00;101760.50;5055182;28;20223;-72
2024/03/17 06:57:55;;;;;;;17.77;3.60;;;;;;;2.40;100.00;101763.78;5054614;28;20203;-71
2024/03/17 07:00:25;;;;;;;13.30;3.60;;;;;;;2.47;100.00;101761.78;5068030;28;20203;-71
2024/03/17 07:02:51;;;;;;;14.70;3.10;;;;;;;2.59;100.00;101767.66;5042976;28;20299;-71
2024/03/17 07:05:18;;;;;;;18.67;4.00;;;;;;;2.66;100.00;101759.66;5059996;28;20215;-71
2024/03/17 07:07:45;;;;;;;14.77;4.00;;;;;;;2.75;100.00;101766.78;5069739;28;20190;-71
2024/03/17 07:10:13;;;;;;;19.67;4.17;;;;;;;2.85;100.00;101766.13;5071616;28;20237;-72
2024/03/17 07:12:43;;;;;;;16.50;3.80;;;;;;;2.96;100.00;101767.81;5071825;28;20218;-72
2024/03/17 07:15:11;;;;;;;15.90;4.13;;;;;;;3.11;100.00;101766.09;5065460;28;20226;-72
2024/03/17 07:17:37;;;;;;;14.23;3.83;;;;;;;3.17;100.00;101759.91;5061949;28;20293;-72
2024/03/17 07:20:08;;;;;;;22.10;3.83;;;;;;;3.26;100.00;101774.06;5057000;28;20219;-72
2024/03/17 07:22:34;;;;;;;27.40;6.23;;;;;;;3.33;100.00;101772.03;5061272;28;20210;-72
2024/03/17 07:25:01;;;;;;;46.93;12.23;;;;;;;3.39;100.00;101778.91;5058232;28;20235;-72
2024/03/17 07:27:31;;;;;;;18.83;4.27;;;;;;;3.52;100.00;101775.88;5067768;28;20206;-72
2024/03/17 07:29:58;;;;;;;16.23;3.77;;;;;;;3.60;100.00;101775.41;5040428;28;20749;-72
2024/03/17 07:32:25;;;;;;;22.37;7.40;;;;;;;3.71;100.00;101773.66;5067938;28;20206;-72
2024/03/17 07:34:52;;;;;;;20.67;5.33;;;;;;;3.79;100.00;101779.19;5058745;28;20234;-72
2024/03/17 07:37:18;;;;;;;13.10;4.23;;;;;;;3.84;100.00;101784.44;5062483;28;20198;-72
2024/03/17 07:39:47;;;;;;;21.40;5.00;;;;;;;3.90;100.00;101783.47;5052502;28;20318;-71
2024/03/17 07:42:14;;;;;;;13.10;3.57;;;;;;;3.98;100.00;101785.59;5060321;28;20262;-72
2024/03/17 07:44:40;;;;;;;16.67;4.00;;;;;;;4.07;100.00;101791.13;5060781;28;20226;-72
2024/03/17 07:47:07;;;;;;;15.13;3.97;;;;;;;4.19;100.00;101794.34;5070641;28;20784;-72
2024/03/17 07:49:35;;;;;;;17.27;3.57;;;;;;;4.24;100.00;101795.16;5069688;28;20303;-72
2024/03/17 07:52:02;;;;;;;16.73;3.40;;;;;;;4.34;100.00;101803.03;5062754;28;20202;-72
2024/03/17 07:54:28;;;;;;;7.27;2.73;;;;;;;4.42;100.00;101804.41;5066906;28;20553;-72
2024/03/17 07:56:58;;;;;;;13.93;3.17;;;;;;;4.51;100.00;101803.66;5064458;28;20289;-72
2024/03/17 07:59:27;;;;;;;10.27;2.07;;;;;;;4.62;100.00;101807.88;5063887;28;20214;-72
2024/03/17 08:01:55;;;;;;;14.50;2.60;;;;;;;4.71;100.00;101811.56;5059262;28;20520;-72
2024/03/17 08:04:22;;;;;;;8.83;1.90;;;;;;;4.77;100.00;101804.53;5064579;28;20194;-72
2024/03/17 08:06:49;;;;;;;9.83;2.20;;;;;;;4.86;100.00;101801.16;5063577;28;20204;-72
2024/03/17 08:09:16;;;;;;;7.60;2.03;;;;;;;4.95;100.00;101804.06;5057207;28;20199;-72
2024/03/17 08:11:46;;;;;;;13.13;2.37;;;;;;;5.09;100.00;101803.31;5057265;28;20206;-72
2024/03/17 08:14:12;;;;;;;6.90;2.10;;;;;;;5.16;100.00;101803.84;5062253;28;20208;-72
2024/03/17 08:16:39;;;;;;;11.33;2.63;;;;;;;5.22;100.00;101802.00;5059471;28;20638;-72
2024/03/17 08:19:06;;;;;;;12.23;1.40;;;;;;;5.30;100.00;101802.31;5064304;28;20692;-72
2024/03/17 08:21:33;;;;;;;8.00;2.10;;;;;;;5.35;100.00;101788.41;5060814;28;20199;-73
2024/03/17 08:24:00;;;;;;;7.47;1.87;;;;;;;5.44;100.00;101798.09;5047025;28;20227;-72
2024/03/17 08:26:27;;;;;;;8.20;2.03;;;;;;;5.53;100.00;101793.13;5067082;28;20562;-72
2024/03/17 08:28:53;;;;;;;8.83;2.10;;;;;;;5.62;100.00;101794.97;5064260;28;20213;-73
2024/03/17 08:31:20;;;;;;;13.57;7.63;;;;;;;5.74;100.00;101786.81;5062104;28;20190;-72
2024/03/17 08:33:47;;;;;;;17.93;7.67;;;;;;;5.78;100.00;101791.28;5064179;28;20289;-72
2024/03/17 08:36:18;;;;;;;12.50;4.90;;;;;;;5.85;100.00;101794.44;5060607;28;20302;-73
2024/03/17 08:38:47;;;;;;;8.13;2.37;;;;;;;5.89;100.00;101792.09;5066019;28;20213;-72
2024/03/17 08:41:16;;;;;;;7.37;1.80;;;;;;;5.93;100.00;101793.13;5063202;28;20217;-72
2024/03/17 08:43:43;;;;;;;11.47;2.93;;;;;;;5.99;100.00;101786.81;5063077;28;20202;-72
2024/03/17 08:46:13;;;;;;;19.23;3.80;;;;;;;6.05;100.00;101791.00;5060947;28;20238;-72
2024/03/17 08:48:40;;;;;;;10.60;2.37;;;;;;;6.15;100.00;101797.03;5065137;28;20202;-72
2024/03/17 08:51:08;;;;;;;12.57;2.07;;;;;;;6.25;100.00;101797.00;5063024;28;20209;-72
2024/03/17 08:53:40;;;;;;;11.47;2.10;;;;;;;6.36;100.00;101801.16;5047840;28;20203;-72
2024/03/17 08:56:07;;;;;;;6.50;1.40;;;;;;;6.41;100.00;101795.91;5064005;28;20222;-72
2024/03/17 08:58:38;;;;;;;4.13;1.60;;;;;;;6.46;100.00;101790.63;5060730;28;20205;-72
2024/03/17 09:01:06;;;;;;;7.97;1.77;;;;;;;6.56;100.00;101795.03;5061987;28;20225;-72
2024/03/17 09:03:33;;;;;;;11.63;2.90;;;;;;;6.64;100.00;101799.75;5065215;28;20833;-72
2024/03/17 09:05:59;;;;;;;8.43;1.80;;;;;;;6.72;100.00;101788.66;5065867;28;20225;-72
2024/03/17 09:08:28;;;;;;;7.27;2.60;;;;;;;6.79;100.00;101783.94;5062114;28;20190;-72
2024/03/17 09:10:55;;;;;;;17.80;5.20;;;;;;;6.82;100.00;101784.16;5061061;28;20202;-72
2024/03/17 09:13:24;;;;;;;40.27;18.67;;;;;;;6.87;100.00;101784.13;5067072;28;20201;-72
2024/03/17 09:15:52;;;;;;;8.23;3.10;;;;;;;6.96;100.00;101781.72;5062526;28;20226;-72
2024/03/17 09:18:18;;;;;;;9.67;2.27;;;;;;;7.10;100.00;101790.56;5057732;28;20210;-72
2024/03/17 09:20:48;;;;;;;9.23;1.73;;;;;;;7.20;100.00;101778.13;5046923;28;20223;-73
2024/03/17 09:23:14;;;;;;;13.53;2.23;;;;;;;7.26;100.00;101787.56;5067949;28;20196;-73
2024/03/17 09:25:41;;;;;;;7.53;2.10;;;;;;;7.30;100.00;101788.56;5065395;28;20293;-72
2024/03/17 09:28:08;;;;;;;11.13;1.63;;;;;;;7.39;100.00;101776.44;5060589;28;20208;-72
2024/03/17 09:30:35;;;;;;;6.47;1.63;;;;;;;7.50;100.00;101783.16;5058831;28;20198;-72
2024/03/17 09:33:04;;;;;;;6.07;2.03;;;;;;;7.56;100.00;101792.56;5060493;28;20677;-73
2024/03/17 09:35:30;;;;;;;8.50;1.90;;;;;;;7.64;100.00;101780.69;5062069;28;20231;-73
2024/03/17 09:37:59;;;;;;;11.73;2.00;;;;;;;7.66;100.00;101781.97;5062601;28;20210;-72
2024/03/17 09:40:26;;;;;;;7.57;1.90;;;;;;;7.66;100.00;101786.47;5069744;28;20251;-73
2024/03/17 09:42:52;;;;;;;8.30;1.87;;;;;;;7.65;100.00;101785.66;5064482;28;20204;-73
2024/03/17 09:45:19;;;;;;;10.00;2.27;;;;;;;7.64;100.00;101781.47;5067591;28;20225;-73
2024/03/17 09:47:46;;;;;;;8.93;1.60;;;;;;;7.68;100.00;101781.72;5067206;28;20191;-72
2024/03/17 09:50:15;;;;;;;12.17;1.60;;;;;;;7.74;100.00;101773.50;5060844;28;20197;-72
2024/03/17 09:52:45;;;;;;;11.70;2.57;;;;;;;7.75;100.00;101764.56;5062581;28;20187;-72
2024/03/17 09:55:16;;;;;;;5.40;1.37;;;;;;;7.81;100.00;101768.69;5065605;28;20680;-72
2024/03/17 09:57:43;;;;;;;5.90;1.20;;;;;;;7.75;100.00;101771.63;5044036;28;20209;-72
2024/03/17 10:00:13;;;;;;;5.30;1.63;;;;;;;7.78;100.00;101768.47;5069848;28;20216;-72
2024/03/17 10:02:44;;;;;;;6.97;1.80;;;;;;;7.82;100.00;101764.22;5061907;28;20199;-72
2024/03/17 10:05:21;;;;;;;9.20;1.40;;;;;;;7.87;100.00;101770.22;5064235;28;20215;-72
2024/03/17 10:07:48;;;;;;;4.33;1.27;;;;;;;7.89;100.00;101762.03;5065534;28;20535;-72
2024/03/17 10:10:16;;;;;;;7.00;1.50;;;;;;;7.96;100.00;101751.97;5058662;28;20532;-72
2024/03/17 10:12:44;;;;;;;13.73;2.80;;;;;;;7.98;100.00;101747.22;5057966;28;20212;-72
2024/03/17 10:15:12;;;;;;;6.13;1.30;;;;;;;8.07;100.00;101754.22;5065331;28;20225;-73
2024/03/17 10:17:38;;;;;;;4.07;1.37;;;;;;;8.16;100.00;101754.38;5069181;28;20207;-72
2024/03/17 10:20:18;;;;;;;6.47;1.60;;;;;;;8.23;100.00;101753.00;5061331;28;20214;-72
2024/03/17 10:23:03;;;;;;;7.53;1.60;;;;;;;8.32;95.46;101753.97;5065434;28;20193;-72
2024/03/17 10:25:33;;;;;;;3.37;1.30;;;;;;;8.44;99.13;101743.03;5066871;28;20259;-72
2024/03/17 10:28:00;;;;;;;4.30;1.40;;;;;;;8.53;100.00;101747.38;5067568;28;20284;-72
2024/03/17 10:30:29;;;;;;;10.40;1.40;;;;;;;8.59;95.00;101756.00;5060549;28;20197;-72
2024/03/17 10:32:57;;;;;;;7.57;1.60;;;;;;;8.58;78.75;101757.84;5067781;28;20586;-73
2024/03/17 10:35:34;;;;;;;6.53;1.40;;;;;;;8.63;90.89;101754.34;5059807;28;20697;-72
2024/03/17 10:38:04;;;;;;;9.97;1.90;;;;;;;8.54;89.61;101764.75;5059517;28;20224;-73
2024/03/17 10:40:32;;;;;;;5.97;1.30;;;;;;;8.50;100.00;101762.97;5066586;28;20228;-73
2024/03/17 10:43:01;;;;;;;7.90;1.60;;;;;;;8.51;97.22;101749.53;5061298;28;20229;-72
2024/03/17 10:45:30;;;;;;;6.47;1.50;;;;;;;8.49;83.06;101753.50;5062877;28;20225;-72
2024/03/17 10:48:00;;;;;;;7.37;1.60;;;;;;;8.57;88.92;101751.03;5059342;28;20261;-72
2024/03/17 10:50:31;;;;;;;5.80;1.20;;;;;;;8.74;84.15;101761.84;5066533;28;20248;-72
2024/03/17 10:53:08;;;;;;;4.93;1.27;;;;;;;8.79;76.93;101763.63;5060028;28;20203;-73
2024/03/17 10:55:44;;;;;;;3.90;1.27;;;;;;;8.83;81.62;101761.97;5058803;28;20579;-72
2024/03/17 10:58:23;;;;;;;12.27;3.60;;;;;;;8.79;77.19;101756.50;5056382;28;20205;-72
2024/03/17 11:00:51;;;;;;;4.70;1.23;;;;;;;8.89;79.98;101761.63;5054453;28;20568;-72
2024/03/17 11:03:20;;;;;;;2.40;1.40;;;;;;;8.95;74.98;101754.47;5062241;28;20194;-72
2024/03/17 11:05:49;;;;;;;6.57;1.57;;;;;;;9.07;80.03;101755.56;5066107;28;20542;-72
2024/03/17 11:08:19;;;;;;;4.60;1.20;;;;;;;9.22;80.85;101771.16;5065020;28;20207;-72
2024/03/17 11:10:50;;;;;;;9.83;1.73;;;;;;;9.20;75.61;101765.38;5062303;28;20200;-72
2024/03/17 11:13:24;;;;;;;4.73;1.63;;;;;;;9.12;77.12;101763.38;5061655;28;20192;-72
2024/03/17 11:15:51;;;;;;;4.87;1.70;;;;;;;9.02;78.04;101765.41;5062548;28;20218;-72
2024/03/17 11:18:38;;;;;;;10.47;1.80;;;;;;;9.08;69.08;101759.00;5058625;28;20207;-73
2024/03/17 11:21:08;;;;;;;7.27;1.40;;;;;;;9.16;77.33;101753.09;5064833;28;20701;-72
2024/03/17 11:23:37;;;;;;;6.10;1.60;;;;;;;9.20;68.81;101754.06;5060071;28;20240;-72
2024/03/17 11:26:05;;;;;;;6.23;1.63;;;;;;;9.32;72.28;101749.91;5059786;28;20283;-72
2024/03/17 11:28:46;;;;;;;4.87;1.43;;;;;;;9.50;73.87;101745.66;5063845;28;20530;-72